M I D A S
Marine Information and Data Acquisition System
Tripno 1623 of the Zeeleeuw from 2008-12-19 08:01:44 to 2008-12-19 15:37:09
Back to CruiseResearch ActivitiesStationsMapUnderway DataData graphs

EquipmentUnitsComments
TimeDGPSUTC
LatitudeDGPSDM.mWGS84
LongitudeDGPSDM.mWGS84
SpeedMeteo Stationm/sRelative wind speed
DirectionMeteo StationdegRelative wind direction
TemperatureMeteo Stationdeg CelciusAir temperature
PressureMeteo StationPaAtmospheric pressure
HumidityMeteo Station%Relative humidity
Missing or incorrect values are displayed as -999
Metereological data collected by the RV Zeeleeuw from 2008-12-19 07:58:03 to 2008-12-19 15:40:02
Time Latitude Longitude Speed Direction Temperature Pressure Humidity
2008-12-19 07:59 51°13.663 2°55.937 -999 -999 -999 -999 -999
2008-12-19 08:00 51°13.683 2°55.845 -999 -999 -999 -999 -999
2008-12-19 08:01 51°13.707 2°55.752 8.3 25 7.4 102330 70
2008-12-19 08:02 51°13.706 2°55.758 6.2 262 7.4 102340 70
2008-12-19 08:03 51°13.709 2°55.755 6.5 27 7.4 102330 72
2008-12-19 08:04 51°13.696 2°55.759 5.2 27 7.4 102340 72
2008-12-19 08:05 51°13.758 2°55.707 7.9 331 7.4 102330 72
2008-12-19 08:06 51°13.861 2°55.614 13.6 325 7.4 102330 73
2008-12-19 08:07 51°13.974 2°55.525 9.5 329 7.4 102330 74
2008-12-19 08:08 51°14.099 2°55.422 10.6 321 7.3 102330 76
2008-12-19 08:09 51°14.224 2°55.299 12.4 326 7.2 102330 77
2008-12-19 08:10 51°14.323 2°55.12 12.4 329 7.1 102340 76
2008-12-19 08:11 51°14.42 2°54.901 16.1 324 7.2 102340 77
2008-12-19 08:12 51°14.578 2°54.724 14.3 322 7.2 102330 78
2008-12-19 08:13 51°14.749 2°54.567 13.7 323 7.2 102330 78
2008-12-19 08:14 51°14.925 2°54.423 14.8 321 7.2 102330 79
2008-12-19 08:15 51°15.102 2°54.276 14.9 324 7.2 102340 79
2008-12-19 08:16 51°15.275 2°54.116 12.6 323 7.2 102340 78
2008-12-19 08:17 51°15.445 2°53.952 13.4 324 7.2 102340 79
2008-12-19 08:18 51°15.62 2°53.814 12.4 319 7.2 102340 79
2008-12-19 08:19 51°15.801 2°53.686 15.2 319 7.2 102330 80
2008-12-19 08:20 51°15.979 2°53.548 12.5 320 7.2 102330 80
2008-12-19 08:21 51°16.158 2°53.408 16.8 322 7.2 102330 81
2008-12-19 08:22 51°16.335 2°53.266 13.8 321 7.2 102330 80
2008-12-19 08:23 51°16.51 2°53.122 15.3 322 7.2 102340 80
2008-12-19 08:24 51°16.685 2°52.976 15.1 322 7.2 102330 81
2008-12-19 08:25 51°16.857 2°52.832 12.8 324 7.2 102330 81
2008-12-19 08:26 51°17.033 2°52.683 17.1 323 7.2 102320 80
2008-12-19 08:27 51°17.206 2°52.536 13.5 324 7.2 102320 80
2008-12-19 08:28 51°17.383 2°52.399 13.9 321 7.2 102330 80
2008-12-19 08:29 51°17.567 2°52.273 17.7 321 7.2 102340 81
2008-12-19 08:30 51°17.749 2°52.142 15.9 323 7.2 102330 80
2008-12-19 08:31 51°17.929 2°52.002 13.5 324 7.2 102340 80
2008-12-19 08:32 51°18.109 2°51.866 13.9 322 7.2 102350 81
2008-12-19 08:33 51°18.285 2°51.729 15.8 324 7.2 102350 80
2008-12-19 08:34 51°18.465 2°51.585 16.5 323 7.2 102340 81
2008-12-19 08:35 51°18.648 2°51.441 14.2 321 7.1 102320 80
2008-12-19 08:36 51°18.824 2°51.306 16.5 320 7.1 102340 81
2008-12-19 08:37 51°18.998 2°51.171 14.4 320 7.1 102340 80
2008-12-19 08:38 51°19.173 2°51.032 14.2 323 7.1 102340 79
2008-12-19 08:39 51°19.35 2°50.894 16.9 323 7.1 102340 80
2008-12-19 08:40 51°19.525 2°50.754 15.1 323 7.1 102330 80
2008-12-19 08:41 51°19.701 2°50.605 17.2 319 7.1 102350 81
2008-12-19 08:42 51°19.884 2°50.48 14.3 319 7.1 102330 78
2008-12-19 08:43 51°20.072 2°50.371 14 318 7.2 102320 78
2008-12-19 08:44 51°20.258 2°50.262 16.9 317 7.2 102330 78
2008-12-19 08:45 51°20.445 2°50.154 15.7 317 7.2 102340 80
2008-12-19 08:46 51°20.634 2°50.045 14.8 319 7.2 102330 78
2008-12-19 08:47 51°20.829 2°49.992 16.9 22 7.2 102340 79
2008-12-19 08:48 51°21.025 2°50.053 15.7 21 7.2 102340 79
2008-12-19 08:49 51°21.222 2°50.135 14 25 7.2 102330 79
2008-12-19 08:50 51°21.419 2°50.208 15.4 25 7.2 102340 79
2008-12-19 08:51 51°21.619 2°50.244 16.3 22 7.1 102350 80
2008-12-19 08:52 51°21.819 2°50.264 14.2 23 7.1 102340 78
2008-12-19 08:53 51°22.019 2°50.266 16.2 24 7.2 102340 78
2008-12-19 08:54 51°22.223 2°50.263 17.1 24 7.2 102340 79
2008-12-19 08:55 51°22.427 2°50.266 14.6 22 7.2 102350 80
2008-12-19 08:56 51°22.631 2°50.27 15.6 21 7.2 102340 79
2008-12-19 08:57 51°22.834 2°50.273 15.5 22 7.2 102340 80
2008-12-19 08:58 51°23.038 2°50.275 14.5 24 7.2 102350 80
2008-12-19 08:59 51°23.238 2°50.279 14.2 25 7.2 102360 81
2008-12-19 09:00 51°23.437 2°50.285 15.7 24 7.2 102350 81
2008-12-19 09:01 51°23.637 2°50.288 14.7 22 7.2 102340 80
2008-12-19 09:02 51°23.836 2°50.29 12.9 25 7.2 102340 80
2008-12-19 09:03 51°24.038 2°50.288 16.2 23 7.2 102350 81
2008-12-19 09:04 51°24.234 2°50.292 16 22 7.2 102360 80
2008-12-19 09:05 51°24.435 2°50.293 14.4 22 7.2 102350 81
2008-12-19 09:06 51°24.634 2°50.294 15.5 21 7.2 102350 80
2008-12-19 09:07 51°24.834 2°50.294 14.8 24 7.2 102360 80
2008-12-19 09:08 51°25.03 2°50.294 14.6 24 7.2 102350 80
2008-12-19 09:09 51°25.232 2°50.291 14.1 26 7.2 102370 79
2008-12-19 09:10 51°25.437 2°50.292 16.7 22 7.2 102380 79
2008-12-19 09:11 51°25.642 2°50.294 12.9 24 7.2 102360 79
2008-12-19 09:12 51°25.846 2°50.294 17.6 23 7.2 102380 81
2008-12-19 09:13 51°26.049 2°50.294 14.2 23 7.2 102380 81
2008-12-19 09:14 51°26.253 2°50.295 15.6 21 7.2 102370 82
2008-12-19 09:15 51°26.434 2°50.36 11.6 258 7.2 102370 80
2008-12-19 09:16 51°26.529 2°50.627 7.8 250 7.2 102430 82
2008-12-19 09:17 51°26.637 2°50.894 12.5 252 7.2 102420 82
2008-12-19 09:18 51°26.737 2°51.17 9.1 250 7.3 102410 83
2008-12-19 09:19 51°26.831 2°51.451 10.5 256 7.2 102420 82
2008-12-19 09:20 51°26.926 2°51.731 11.7 253 7.2 102420 82
2008-12-19 09:21 51°27.024 2°52.008 9.3 252 7.2 102420 82
2008-12-19 09:22 51°27.119 2°52.286 7.8 253 7.2 102430 82
2008-12-19 09:23 51°27.217 2°52.563 10.6 258 7.2 102430 83
2008-12-19 09:24 51°27.312 2°52.842 11 251 7.2 102430 82
2008-12-19 09:25 51°27.408 2°53.119 11 255 7.2 102420 82
2008-12-19 09:26 51°27.504 2°53.399 9.1 249 7.2 102430 81
2008-12-19 09:27 51°27.602 2°53.679 8 248 7.3 102420 82
2008-12-19 09:28 51°27.696 2°53.961 8.7 246 7.3 102430 82
2008-12-19 09:29 51°27.789 2°54.244 12.1 254 7.3 102420 81
2008-12-19 09:30 51°27.888 2°54.523 10.3 249 7.3 102440 82
2008-12-19 09:31 51°27.992 2°54.796 9 22 7.3 102420 81
2008-12-19 09:32 51°28.094 2°55.073 10.5 20 7.3 102440 80
2008-12-19 09:33 51°28.197 2°55.35 9.4 250 7.3 102430 79
2008-12-19 09:34 51°28.301 2°55.629 7.9 19 7.3 102440 80
2008-12-19 09:35 51°28.403 2°55.908 9.6 252 7.3 102440 80
2008-12-19 09:36 51°28.508 2°56.18 8 25 7.3 102440 81
2008-12-19 09:37 51°28.609 2°56.459 11 247 7.3 102450 82
2008-12-19 09:38 51°28.712 2°56.739 9.8 252 7.3 102420 79
2008-12-19 09:39 51°28.815 2°57.014 10 23 7.3 102440 79
2008-12-19 09:40 51°28.917 2°57.291 10.6 20 7.3 102440 80
2008-12-19 09:41 51°29.023 2°57.567 9 247 7.4 102450 80
2008-12-19 09:42 51°29.127 2°57.843 9.8 252 7.3 102450 81
2008-12-19 09:43 51°29.231 2°58.117 8.3 248 7.3 102430 80
2008-12-19 09:44 51°29.335 2°58.392 7.8 20 7.3 102450 80
2008-12-19 09:45 51°29.439 2°58.667 9.7 248 7.3 102450 81
2008-12-19 09:46 51°29.542 2°58.94 10.2 247 7.3 102430 80
2008-12-19 09:47 51°29.644 2°59.216 9.3 251 7.3 102450 81
2008-12-19 09:48 51°29.747 2°59.487 7.9 248 7.3 102440 80
2008-12-19 09:49 51°29.846 2°59.762 10.1 251 7.3 102450 80
2008-12-19 09:50 51°29.947 3°0.034 11.7 20 7.3 102450 80
2008-12-19 09:51 51°30.046 3°0.307 12.3 252 7.3 102440 80
2008-12-19 09:52 51°30.145 3°0.579 10.5 249 7.3 102450 79
2008-12-19 09:53 51°30.246 3°0.847 13.9 250 7.3 102440 80
2008-12-19 09:54 51°30.349 3°1.113 7.3 19 7.3 102450 80
2008-12-19 09:55 51°30.446 3°1.385 9.4 248 7.3 102460 81
2008-12-19 09:56 51°30.545 3°1.654 8.8 250 7.3 102460 80
2008-12-19 09:57 51°30.642 3°1.925 8.7 250 7.3 102450 81
2008-12-19 09:58 51°30.74 3°2.196 8.4 21 7.3 102450 82
2008-12-19 09:59 51°30.843 3°2.457 10.4 254 7.3 102450 82
2008-12-19 10:00 51°30.947 3°2.72 8.9 250 7.3 102450 80
2008-12-19 10:01 51°31.052 3°2.983 8.8 24 7.3 102450 81
2008-12-19 10:02 51°31.156 3°3.252 13.9 250 7.3 102450 82
2008-12-19 10:03 51°31.264 3°3.515 7.7 251 7.3 102440 82
2008-12-19 10:04 51°31.366 3°3.783 12.8 250 7.3 102440 81
2008-12-19 10:05 51°31.467 3°4.046 9.4 250 7.3 102450 82
2008-12-19 10:06 51°31.568 3°4.306 10.4 20 7.3 102440 80
2008-12-19 10:07 51°31.672 3°4.564 9.7 20 7.3 102460 81
2008-12-19 10:08 51°31.775 3°4.825 9.1 23 7.3 102450 82
2008-12-19 10:09 51°31.929 3°4.976 14.5 20 7.3 102430 82
2008-12-19 10:10 51°32.11 3°4.939 14.5 320 7.3 102430 80
2008-12-19 10:11 51°32.259 3°4.792 17 327 7.3 102440 81
2008-12-19 10:12 51°32.39 3°4.588 16.9 329 7.3 102450 81
2008-12-19 10:13 51°32.512 3°4.359 14.7 330 7.3 102430 82
2008-12-19 10:14 51°32.639 3°4.131 14.2 332 7.3 102460 83
2008-12-19 10:15 51°32.769 3°3.897 19.6 329 7.3 102420 81
2008-12-19 10:16 51°32.895 3°3.659 15.7 332 7.3 102430 80
2008-12-19 10:17 51°32.947 3°3.356 16.9 345 7.3 102400 80
2008-12-19 10:18 51°32.882 3°3.06 13.2 355 7.3 102440 79
2008-12-19 10:19 51°32.792 3°2.783 13.9 354 7.2 102440 81
2008-12-19 10:20 51°32.718 3°2.489 14.7 354 7.2 102440 80
2008-12-19 10:21 51°32.648 3°2.191 14.2 349 7.2 102430 80
2008-12-19 10:22 51°32.57 3°1.898 17.4 353 7.2 102420 80
2008-12-19 10:23 51°32.484 3°1.608 12.8 354 7.3 102430 82
2008-12-19 10:24 51°32.394 3°1.331 12.2 352 7.2 102420 79
2008-12-19 10:25 51°32.301 3°1.045 13 354 7.3 102430 80
2008-12-19 10:26 51°32.208 3°0.759 16.4 353 7.3 102420 82
2008-12-19 10:27 51°32.115 3°0.473 15.9 355 7.3 102420 80
2008-12-19 10:28 51°32.022 3°0.187 13.7 352 7.3 102430 80
2008-12-19 10:29 51°31.931 2°59.906 14.4 351 7.3 102440 81
2008-12-19 10:30 51°31.839 2°59.643 15 354 7.3 102420 81
2008-12-19 10:31 51°31.746 2°59.364 13.2 355 7.3 102430 80
2008-12-19 10:32 51°31.651 2°59.078 14.4 351 7.3 102430 81
2008-12-19 10:33 51°31.558 2°58.803 14.3 356 7.3 102430 80
2008-12-19 10:34 51°31.464 2°58.519 12.7 355 7.3 102450 80
2008-12-19 10:35 51°31.371 2°58.233 13.2 351 7.3 102430 80
2008-12-19 10:36 51°31.271 2°57.943 13.8 356 7.3 102430 82
2008-12-19 10:37 51°31.167 2°57.664 14 353 7.3 102420 80
2008-12-19 10:38 51°31.063 2°57.38 16 354 7.3 102440 81
2008-12-19 10:39 51°30.958 2°57.098 14.5 357 7.3 102430 80
2008-12-19 10:40 51°30.856 2°56.819 14.4 352 7.3 102450 80
2008-12-19 10:41 51°30.76 2°56.533 13.3 353 7.3 102440 80
2008-12-19 10:42 51°30.663 2°56.248 12.6 351 7.3 102440 78
2008-12-19 10:43 51°30.566 2°55.958 12.6 354 7.3 102420 79
2008-12-19 10:44 51°30.469 2°55.67 13 354 7.3 102450 79
2008-12-19 10:45 51°30.371 2°55.378 15.2 351 7.3 102450 81
2008-12-19 10:46 51°30.273 2°55.083 15 350 7.3 102440 81
2008-12-19 10:47 51°30.176 2°54.786 16 351 7.2 102430 80
2008-12-19 10:48 51°30.078 2°54.489 14.3 353 7.3 102450 80
2008-12-19 10:49 51°29.981 2°54.198 15.1 347 7.3 102470 81
2008-12-19 10:50 51°29.885 2°53.912 13.9 351 7.3 102450 81
2008-12-19 10:51 51°29.789 2°53.619 16.5 349 7.2 102460 81
2008-12-19 10:52 51°29.691 2°53.325 15.4 351 7.2 102450 80
2008-12-19 10:53 51°29.597 2°53.035 15.4 349 7.3 102470 81
2008-12-19 10:54 51°29.5 2°52.751 12.5 349 7.3 102460 81
2008-12-19 10:55 51°29.403 2°52.456 15.3 348 7.2 102450 81
2008-12-19 10:56 51°29.308 2°52.171 13 353 7.2 102460 80
2008-12-19 10:57 51°29.211 2°51.875 14 351 7.2 102470 80
2008-12-19 10:58 51°29.113 2°51.578 14.5 349 7.3 102470 82
2008-12-19 10:59 51°29.015 2°51.287 12.6 348 7.2 102460 82
2008-12-19 11:00 51°28.919 2°50.999 16.9 350 7.2 102460 82
2008-12-19 11:01 51°28.822 2°50.715 16.6 351 7.2 102450 81
2008-12-19 11:02 51°28.725 2°50.42 14.1 350 7.2 102450 82
2008-12-19 11:03 51°28.629 2°50.13 15.9 347 7.2 102450 82
2008-12-19 11:04 51°28.533 2°49.842 14.2 351 7.2 102450 81
2008-12-19 11:05 51°28.437 2°49.554 12.6 346 7.2 102450 82
2008-12-19 11:06 51°28.344 2°49.265 12.5 347 7.2 102470 82
2008-12-19 11:07 51°28.247 2°48.974 15.2 350 7.2 102450 82
2008-12-19 11:08 51°28.15 2°48.679 14.7 350 7.2 102480 84
2008-12-19 11:09 51°28.055 2°48.384 15.4 347 7.2 102450 84
2008-12-19 11:10 51°27.962 2°48.095 13 350 7.2 102430 82
2008-12-19 11:11 51°27.864 2°47.811 15.3 352 7.2 102450 81
2008-12-19 11:12 51°27.769 2°47.526 11.7 348 7.2 102430 81
2008-12-19 11:13 51°27.668 2°47.234 14.9 353 7.2 102450 82
2008-12-19 11:14 51°27.562 2°46.946 13.6 350 7.2 102460 82
2008-12-19 11:15 51°27.45 2°46.663 11.4 346 7.2 102440 81
2008-12-19 11:16 51°27.335 2°46.379 12.1 350 7.2 102450 83
2008-12-19 11:17 51°27.23 2°46.089 13.8 350 7.2 102440 82
2008-12-19 11:18 51°27.126 2°45.79 13.3 350 7.2 102460 81
2008-12-19 11:19 51°27.026 2°45.49 14.1 348 7.2 102460 82
2008-12-19 11:20 51°26.927 2°45.194 12.4 349 7.2 102480 83
2008-12-19 11:21 51°26.826 2°44.901 10.6 348 7.2 102440 81
2008-12-19 11:22 51°26.727 2°44.608 12.2 349 7.2 102470 82
2008-12-19 11:23 51°26.627 2°44.317 11.9 349 7.2 102450 81
2008-12-19 11:24 51°26.526 2°44.021 12.4 347 7.3 102440 82
2008-12-19 11:25 51°26.426 2°43.719 13.7 346 7.3 102460 83
2008-12-19 11:26 51°26.325 2°43.42 14 349 7.3 102460 82
2008-12-19 11:27 51°26.357 2°43.139 13.9 318 7.3 102460 81
2008-12-19 11:28 51°26.524 2°43.033 12 319 7.3 102440 81
2008-12-19 11:29 51°26.692 2°42.925 14.2 319 7.4 102450 81
2008-12-19 11:30 51°26.867 2°42.811 14 318 7.4 102460 81
2008-12-19 11:31 51°27.043 2°42.694 15.3 319 7.4 102460 80
2008-12-19 11:32 51°27.221 2°42.582 13.1 316 7.5 102460 82
2008-12-19 11:33 51°27.394 2°42.471 15 316 7.4 102450 81
2008-12-19 11:34 51°27.57 2°42.362 13.2 25 7.5 102450 81
2008-12-19 11:35 51°27.719 2°42.411 6.8 258 7.5 102450 82
2008-12-19 11:36 51°27.798 2°42.664 5.5 252 7.5 102470 82
2008-12-19 11:37 51°27.881 2°42.922 5.6 251 7.5 102490 84
2008-12-19 11:38 51°27.966 2°43.176 8.4 250 7.5 102490 82
2008-12-19 11:39 51°28.051 2°43.437 7.3 251 7.6 102500 82
2008-12-19 11:40 51°28.13 2°43.698 6.5 20 7.6 102490 84
2008-12-19 11:41 51°28.216 2°43.953 8 20 7.6 102480 83
2008-12-19 11:42 51°28.308 2°44.207 9.1 248 7.6 102490 83
2008-12-19 11:43 51°28.4 2°44.46 9.2 19 7.6 102480 83
2008-12-19 11:44 51°28.493 2°44.713 5.6 25 7.6 102480 83
2008-12-19 11:45 51°28.584 2°44.97 5.9 249 7.6 102490 82
2008-12-19 11:46 51°28.675 2°45.226 9.8 250 7.6 102480 82
2008-12-19 11:47 51°28.764 2°45.478 9.1 251 7.6 102470 81
2008-12-19 11:48 51°28.855 2°45.728 6 246 7.6 102470 81
2008-12-19 11:49 51°28.942 2°45.979 6 251 7.6 102480 80
2008-12-19 11:50 51°29.029 2°46.227 5.8 244 7.6 102480 82
2008-12-19 11:51 51°29.112 2°46.483 5.9 26 7.6 102470 82
2008-12-19 11:52 51°29.201 2°46.733 6.4 250 7.7 102470 83
2008-12-19 11:53 51°29.286 2°46.987 9.6 253 7.7 102470 83
2008-12-19 11:54 51°29.373 2°47.239 8.1 251 7.6 102470 80
2008-12-19 11:55 51°29.457 2°47.494 10.4 253 7.6 102460 81
2008-12-19 11:56 51°29.543 2°47.746 6.6 252 7.6 102460 80
2008-12-19 11:57 51°29.629 2°47.999 7.5 19 7.6 102470 82
2008-12-19 11:58 51°29.717 2°48.251 7 248 7.7 102460 81
2008-12-19 11:59 51°29.805 2°48.507 5.4 21 7.6 102480 82
2008-12-19 12:00 51°29.889 2°48.763 7.9 20 7.6 102470 81
2008-12-19 12:01 51°29.978 2°49.016 6.1 251 7.6 102460 81
2008-12-19 12:02 51°30.062 2°49.274 8.5 251 7.6 102460 81
2008-12-19 12:03 51°30.148 2°49.53 7.4 20 7.7 102460 81
2008-12-19 12:04 51°30.233 2°49.788 5.2 19 7.6 102460 80
2008-12-19 12:05 51°30.316 2°50.049 8.2 251 7.6 102460 81
2008-12-19 12:06 51°30.393 2°50.315 8.4 257 7.6 102480 81
2008-12-19 12:07 51°30.472 2°50.575 6.4 251 7.6 102470 80
2008-12-19 12:08 51°30.549 2°50.84 9.4 252 7.6 102460 82
2008-12-19 12:09 51°30.631 2°51.102 5.9 251 7.6 102460 80
2008-12-19 12:10 51°30.707 2°51.367 5.6 19 7.6 102440 83
2008-12-19 12:11 51°30.785 2°51.628 6.8 252 7.6 102450 82
2008-12-19 12:12 51°30.864 2°51.886 8.8 258 7.6 102450 83
2008-12-19 12:13 51°30.944 2°52.141 6 252 7.6 102460 81
2008-12-19 12:14 51°31.022 2°52.409 6.3 23 7.6 102450 83
2008-12-19 12:15 51°31.079 2°52.609 3.6 261 7.6 102460 82
2008-12-19 12:16 51°31.113 2°52.753 5.9 259 7.6 102460 83
2008-12-19 12:17 51°31.182 2°52.99 7.7 256 7.6 102470 83
2008-12-19 12:18 51°31.26 2°53.245 6.3 253 7.6 102460 83
2008-12-19 12:19 51°31.33 2°53.51 3.8 251 7.6 102450 83
2008-12-19 12:20 51°31.386 2°53.779 3.2 255 7.6 102470 83
2008-12-19 12:21 51°31.418 2°54.067 3.8 254 7.6 102470 82
2008-12-19 12:22 51°31.412 2°54.361 2.7 249 7.6 102470 83
2008-12-19 12:23 51°31.394 2°54.657 1.6 249 7.7 102480 83
2008-12-19 12:24 51°31.375 2°54.952 2.5 26 7.7 102470 83
2008-12-19 12:25 51°31.356 2°55.251 4.5 257 7.7 102470 83
2008-12-19 12:26 51°31.342 2°55.547 1.9 267 7.7 102470 82
2008-12-19 12:27 51°31.317 2°55.842 1 252 7.7 102460 82
2008-12-19 12:28 51°31.289 2°56.139 1.2 263 7.7 102470 82
2008-12-19 12:29 51°31.258 2°56.435 1.2 264 7.7 102480 82
2008-12-19 12:30 51°31.249 2°56.725 3.4 261 7.7 102460 82
2008-12-19 12:31 51°31.286 2°56.999 5.9 256 7.7 102450 81
2008-12-19 12:32 51°31.366 2°57.245 6 27 7.7 102440 82
2008-12-19 12:33 51°31.466 2°57.471 6.4 246 7.7 102450 83
2008-12-19 12:34 51°31.572 2°57.688 7.6 20 7.7 102440 83
2008-12-19 12:35 51°31.684 2°57.899 7.6 20 7.7 102440 83
2008-12-19 12:36 51°31.8 2°58.107 6.9 248 7.6 102420 83
2008-12-19 12:37 51°31.913 2°58.315 6.5 245 7.6 102430 83
2008-12-19 12:38 51°32.032 2°58.517 7.4 25 7.6 102430 82
2008-12-19 12:39 51°32.156 2°58.706 9.2 22 7.6 102430 82
2008-12-19 12:40 51°32.283 2°58.897 7.4 22 7.6 102450 83
2008-12-19 12:41 51°32.409 2°59.083 7.8 27 7.6 102450 83
2008-12-19 12:42 51°32.543 2°59.255 5.7 20 7.5 102430 83
2008-12-19 12:43 51°32.679 2°59.425 7.7 28 7.5 102440 82
2008-12-19 12:44 51°32.811 2°59.602 9.4 21 7.5 102440 82
2008-12-19 12:45 51°32.941 2°59.769 9.4 20 7.4 102440 82
2008-12-19 12:46 51°33.074 2°59.941 9.3 21 7.5 102450 82
2008-12-19 12:47 51°33.21 3°0.103 7.6 22 7.5 102450 83
2008-12-19 12:48 51°33.348 3°0.26 9 21 7.5 102430 82
2008-12-19 12:49 51°33.492 3°0.398 7.5 20 7.4 102430 83
2008-12-19 12:50 51°33.644 3°0.519 7.2 21 7.5 102440 84
2008-12-19 12:51 51°33.783 3°0.634 8.7 25 7.4 102430 84
2008-12-19 12:52 51°33.925 3°0.749 8.8 26 7.4 102440 84
2008-12-19 12:53 51°34.071 3°0.878 7.8 26 7.4 102430 84
2008-12-19 12:54 51°34.224 3°0.98 7.4 27 7.4 102420 84
2008-12-19 12:55 51°34.375 3°0.942 12.2 26 7.3 102410 84
2008-12-19 12:56 51°34.53 3°0.855 10.4 22 7.3 102430 82
2008-12-19 12:57 51°34.687 3°0.759 11.2 22 7.3 102410 82
2008-12-19 12:58 51°34.843 3°0.63 9.9 318 7.3 102420 83
2008-12-19 12:59 51°34.971 3°0.419 13.7 323 7.3 102410 83
2008-12-19 13:00 51°35.09 3°0.196 12.6 319 7.3 102400 84
2008-12-19 13:01 51°35.211 2°59.971 10.7 321 7.3 102430 85
2008-12-19 13:02 51°35.331 2°59.753 10.6 321 7.2 102400 83
2008-12-19 13:03 51°35.458 2°59.53 12 321 7.3 102420 84
2008-12-19 13:04 51°35.584 2°59.311 12.7 321 7.3 102410 83
2008-12-19 13:05 51°35.661 2°59.038 12.4 334 7.3 102400 84
2008-12-19 13:06 51°35.593 2°58.735 10.6 339 7.3 102390 81
2008-12-19 13:07 51°35.479 2°58.443 10.4 343 7.3 102380 82
2008-12-19 13:08 51°35.37 2°58.142 12.6 338 7.2 102400 84
2008-12-19 13:09 51°35.26 2°57.832 11.1 342 7.2 102400 84
2008-12-19 13:10 51°35.153 2°57.53 11.9 341 7.2 102430 83
2008-12-19 13:11 51°35.044 2°57.218 10.9 339 7.2 102390 84
2008-12-19 13:12 51°34.937 2°56.907 10.7 341 7.2 102410 83
2008-12-19 13:13 51°34.827 2°56.598 10.3 343 7.2 102400 83
2008-12-19 13:14 51°34.721 2°56.289 12.3 342 7.2 102420 84
2008-12-19 13:15 51°34.614 2°55.982 13.3 340 7.2 102400 83
2008-12-19 13:16 51°34.509 2°55.677 10.4 337 7.2 102420 81
2008-12-19 13:17 51°34.404 2°55.369 12 337 7.2 102400 81
2008-12-19 13:18 51°34.299 2°55.067 11.6 336 7.2 102400 82
2008-12-19 13:19 51°34.196 2°54.756 9.3 339 7.2 102400 83
2008-12-19 13:20 51°34.091 2°54.448 10.5 336 7.2 102410 82
2008-12-19 13:21 51°33.987 2°54.137 11.8 341 7.2 102410 83
2008-12-19 13:22 51°33.885 2°53.831 10.7 344 7.2 102430 82
2008-12-19 13:23 51°33.782 2°53.531 12 340 7.3 102400 83
2008-12-19 13:24 51°33.68 2°53.225 11.3 336 7.2 102420 82
2008-12-19 13:25 51°33.577 2°52.919 10.8 338 7.2 102410 83
2008-12-19 13:26 51°33.474 2°52.606 10.9 339 7.3 102420 82
2008-12-19 13:27 51°33.369 2°52.296 12.6 339 7.3 102410 83
2008-12-19 13:28 51°33.265 2°51.983 11.5 337 7.3 102410 84
2008-12-19 13:29 51°33.161 2°51.666 12.3 335 7.3 102430 84
2008-12-19 13:30 51°33.057 2°51.35 13.5 335 7.3 102420 83
2008-12-19 13:31 51°32.951 2°51.039 12.1 337 7.3 102420 83
2008-12-19 13:32 51°32.842 2°50.732 11.2 337 7.3 102420 84
2008-12-19 13:33 51°32.732 2°50.42 11 333 7.3 102430 82
2008-12-19 13:34 51°32.622 2°50.109 11.4 336 7.3 102430 84
2008-12-19 13:35 51°32.512 2°49.804 13 334 7.3 102420 83
2008-12-19 13:36 51°32.403 2°49.499 10.4 334 7.3 102410 82
2008-12-19 13:37 51°32.294 2°49.192 10.8 332 7.3 102430 82
2008-12-19 13:38 51°32.185 2°48.887 13.1 332 7.4 102430 85
2008-12-19 13:39 51°32.075 2°48.582 13.1 334 7.3 102440 84
2008-12-19 13:40 51°31.968 2°48.274 12.8 334 7.3 102440 82
2008-12-19 13:41 51°31.86 2°47.969 11.1 332 7.3 102450 84
2008-12-19 13:42 51°31.752 2°47.661 11 334 7.3 102440 84
2008-12-19 13:43 51°31.648 2°47.348 13.4 334 7.3 102430 82
2008-12-19 13:44 51°31.54 2°47.043 11.2 337 7.3 102420 81
2008-12-19 13:45 51°31.433 2°46.736 11.3 338 7.4 102430 84
2008-12-19 13:46 51°31.326 2°46.424 13 335 7.3 102420 83
2008-12-19 13:47 51°31.222 2°46.113 12.7 335 7.3 102420 82
2008-12-19 13:48 51°31.115 2°45.807 14.2 332 7.4 102420 80
2008-12-19 13:49 51°31.008 2°45.502 11.5 336 7.4 102440 81
2008-12-19 13:50 51°30.903 2°45.201 14.3 333 7.4 102420 83
2008-12-19 13:51 51°30.797 2°44.899 15 337 7.4 102430 83
2008-12-19 13:52 51°30.691 2°44.597 13 336 7.4 102430 82
2008-12-19 13:53 51°30.583 2°44.291 13.8 335 7.5 102430 81
2008-12-19 13:54 51°30.476 2°43.983 13.4 335 7.5 102440 82
2008-12-19 13:55 51°30.369 2°43.675 13.4 336 7.5 102420 81
2008-12-19 13:56 51°30.261 2°43.363 12.6 338 7.5 102450 83
2008-12-19 13:57 51°30.155 2°43.053 11.4 336 7.5 102450 82
2008-12-19 13:58 51°30.045 2°42.748 12.3 335 7.5 102450 83
2008-12-19 13:59 51°29.928 2°42.452 14.8 331 7.5 102440 84
2008-12-19 14:00 51°29.809 2°42.157 13.6 335 7.5 102430 83
2008-12-19 14:01 51°29.688 2°41.865 13.4 337 7.5 102440 83
2008-12-19 14:02 51°29.565 2°41.581 13.7 339 7.5 102450 83
2008-12-19 14:03 51°29.417 2°41.314 13.3 339 7.5 102450 82
2008-12-19 14:04 51°29.268 2°41.047 11.5 338 7.5 102440 84
2008-12-19 14:05 51°29.119 2°40.782 12.9 336 7.5 102450 83
2008-12-19 14:06 51°28.973 2°40.512 13.4 337 7.5 102440 84
2008-12-19 14:07 51°28.827 2°40.241 12.3 333 7.5 102450 84
2008-12-19 14:08 51°28.682 2°39.972 14 335 7.4 102450 84
2008-12-19 14:09 51°28.52 2°39.735 12.8 340 7.4 102440 85
2008-12-19 14:10 51°28.314 2°39.642 10.4 352 7.5 102440 84
2008-12-19 14:11 51°28.108 2°39.724 10 360 7.4 102440 85
2008-12-19 14:12 51°27.91 2°39.853 9.2 360 7.4 102460 86
2008-12-19 14:13 51°27.712 2°39.983 9.2 2 7.4 102460 86
2008-12-19 14:14 51°27.517 2°40.117 9.6 358 7.4 102470 84
2008-12-19 14:15 51°27.325 2°40.252 10.3 359 7.4 102470 85
2008-12-19 14:16 51°27.135 2°40.398 10.5 358 7.4 102480 84
2008-12-19 14:17 51°26.945 2°40.537 9.2 357 7.4 102460 84
2008-12-19 14:18 51°26.756 2°40.672 8.1 358 7.3 102470 84
2008-12-19 14:19 51°26.571 2°40.804 10 360 7.4 102470 85
2008-12-19 14:20 51°26.387 2°40.935 9.7 359 7.3 102470 86
2008-12-19 14:21 51°26.2 2°41.067 9.4 5 7.3 102470 85
2008-12-19 14:22 51°26.017 2°41.202 9.5 359 7.3 102480 87
2008-12-19 14:23 51°25.833 2°41.339 8.7 5 7.3 102470 86
2008-12-19 14:24 51°25.651 2°41.477 8.4 356 7.2 102470 87
2008-12-19 14:25 51°25.469 2°41.62 9.6 357 7.2 102490 87
2008-12-19 14:26 51°25.287 2°41.765 9.1 1 7.2 102490 85
2008-12-19 14:27 51°25.104 2°41.905 9.6 -999 7.2 102490 87
2008-12-19 14:28 51°24.92 2°42.04 9.6 360 7.2 102480 85
2008-12-19 14:29 51°24.737 2°42.182 10.4 358 7.2 102470 85
2008-12-19 14:30 51°24.551 2°42.326 10.3 360 7.2 102480 85
2008-12-19 14:31 51°24.366 2°42.47 9.3 357 7.2 102480 88
2008-12-19 14:32 51°24.184 2°42.612 9.6 356 7.1 102470 87
2008-12-19 14:33 51°23.999 2°42.753 10.5 356 7.1 102480 88
2008-12-19 14:34 51°23.817 2°42.887 8.8 354 7 102470 89
2008-12-19 14:35 51°23.636 2°43.02 9.4 355 7 102480 91
2008-12-19 14:36 51°23.458 2°43.151 10.5 359 7 102480 89
2008-12-19 14:37 51°23.28 2°43.281 10.1 360 6.9 102480 90
2008-12-19 14:38 51°23.101 2°43.414 8.6 356 6.9 102490 90
2008-12-19 14:39 51°22.911 2°43.52 10.6 355 6.9 102480 91
2008-12-19 14:40 51°22.72 2°43.616 9.3 354 6.8 102470 90
2008-12-19 14:41 51°22.529 2°43.718 8.7 353 6.9 102470 90
2008-12-19 14:42 51°22.333 2°43.808 11.2 355 6.9 102480 90
2008-12-19 14:43 51°22.144 2°43.919 10.5 355 6.9 102470 90
2008-12-19 14:44 51°21.967 2°44.075 9.4 356 6.8 102480 90
2008-12-19 14:45 51°21.799 2°44.246 9.1 355 6.8 102480 91
2008-12-19 14:46 51°21.628 2°44.414 9.4 355 6.8 102480 93
2008-12-19 14:47 51°21.455 2°44.581 8.8 354 6.7 102480 92
2008-12-19 14:48 51°21.285 2°44.75 10.3 353 6.7 102480 91
2008-12-19 14:49 51°21.118 2°44.915 9.1 352 6.7 102500 92
2008-12-19 14:50 51°20.952 2°45.075 9.8 353 6.6 102490 93
2008-12-19 14:51 51°20.789 2°45.236 7.8 352 6.6 102490 92
2008-12-19 14:52 51°20.64 2°45.423 9.8 353 6.5 102500 92
2008-12-19 14:53 51°20.493 2°45.617 7.4 355 6.5 102490 93
2008-12-19 14:54 51°20.346 2°45.813 7.9 353 6.5 102490 92
2008-12-19 14:55 51°20.197 2°46.012 7.9 355 6.5 102480 92
2008-12-19 14:56 51°20.044 2°46.209 8.8 356 6.5 102490 92
2008-12-19 14:57 51°19.893 2°46.408 8.4 355 6.5 102490 91
2008-12-19 14:58 51°19.743 2°46.608 7.9 353 6.5 102480 92
2008-12-19 14:59 51°19.593 2°46.802 8.7 357 6.4 102490 92
2008-12-19 15:00 51°19.441 2°46.997 7.4 355 6.4 102480 93
2008-12-19 15:01 51°19.29 2°47.193 8.2 356 6.4 102480 93
2008-12-19 15:02 51°19.138 2°47.389 9.4 356 6.4 102480 94
2008-12-19 15:03 51°18.984 2°47.588 9.7 359 6.4 102480 92
2008-12-19 15:04 51°18.829 2°47.783 7.9 355 6.4 102490 93
2008-12-19 15:05 51°18.674 2°47.977 9.6 357 6.4 102490 93
2008-12-19 15:06 51°18.518 2°48.167 8.5 353 6.4 102490 94
2008-12-19 15:07 51°18.361 2°48.361 7.7 355 6.4 102490 95
2008-12-19 15:08 51°18.21 2°48.564 8.5 356 6.3 102490 95
2008-12-19 15:09 51°18.046 2°48.748 8.2 352 6.4 102480 95
2008-12-19 15:10 51°17.876 2°48.915 10 352 6.3 102490 95
2008-12-19 15:11 51°17.697 2°49.061 8.8 350 6.3 102490 95
2008-12-19 15:12 51°17.52 2°49.209 9 354 6.3 102490 95
2008-12-19 15:13 51°17.345 2°49.365 9 349 6.3 102500 95
2008-12-19 15:14 51°17.169 2°49.515 9.7 350 6.3 102490 93
2008-12-19 15:15 51°16.994 2°49.67 8.7 354 6.3 102500 94
2008-12-19 15:16 51°16.816 2°49.824 9 350 6.4 102500 95
2008-12-19 15:17 51°16.64 2°49.983 8.7 349 6.3 102510 94
2008-12-19 15:18 51°16.469 2°50.142 8.9 349 6.3 102510 94
2008-12-19 15:19 51°16.298 2°50.313 9.4 353 6.3 102500 94
2008-12-19 15:20 51°16.174 2°50.559 6.4 358 6.3 102510 95
2008-12-19 15:21 51°16.098 2°50.853 6 358 6.3 102510 95
2008-12-19 15:22 51°16.022 2°51.147 6.1 359 6.3 102500 95
2008-12-19 15:23 51°15.913 2°51.406 7.7 355 6.3 102500 95
2008-12-19 15:24 51°15.773 2°51.624 8 354 6.3 102510 95
2008-12-19 15:25 51°15.631 2°51.837 7.5 356 6.3 102500 94
2008-12-19 15:26 51°15.507 2°52.08 6.9 357 6.3 102500 94
2008-12-19 15:27 51°15.398 2°52.344 6 357 6.3 102510 94
2008-12-19 15:28 51°15.298 2°52.613 7 358 6.3 102500 93
2008-12-19 15:29 51°15.196 2°52.881 6.5 356 6.3 102510 94
2008-12-19 15:30 51°15.096 2°53.15 7.3 355 6.2 102510 94
2008-12-19 15:31 51°14.999 2°53.425 7.2 353 6.2 102510 95
2008-12-19 15:32 51°14.893 2°53.705 6.7 353 6.1 102510 96
2008-12-19 15:33 51°14.787 2°53.987 6.8 354 6.1 102510 96
2008-12-19 15:34 51°14.682 2°54.268 6.3 352 6.1 102510 95
2008-12-19 15:35 51°14.581 2°54.551 7.7 353 6.1 102500 96
2008-12-19 15:36 51°14.476 2°54.837 8.3 353 6.1 102500 96
2008-12-19 15:37 51°14.359 2°55.101 8.3 351 6.1 102490 96
2008-12-19 15:38 51°14.249 2°55.26 6.6 355 6.3 102510 93
2008-12-19 15:39 51°14.158 2°55.371 3.2 338 6.5 102510 90